createdAt,value
2023-03-20T00:01:21.666Z,9.77
2023-03-20T00:03:50.431Z,9.75
2023-03-20T00:06:21.679Z,9.71
2023-03-20T00:08:50.482Z,9.70
2023-03-20T00:11:36.430Z,9.76
2023-03-20T00:14:11.271Z,9.78
2023-03-20T00:16:40.543Z,9.77
2023-03-20T00:19:23.335Z,9.81
2023-03-20T00:21:51.491Z,9.78
2023-03-20T00:24:18.167Z,9.78
2023-03-20T00:26:46.338Z,9.74
2023-03-20T00:29:22.661Z,9.83
2023-03-20T00:31:49.917Z,9.86
2023-03-20T00:34:19.274Z,9.86
2023-03-20T00:36:46.424Z,9.74
2023-03-20T00:39:13.817Z,9.76
2023-03-20T00:42:08.117Z,9.75
2023-03-20T00:44:48.543Z,9.74
2023-03-20T00:47:21.306Z,9.72
2023-03-20T00:49:50.204Z,9.74
2023-03-20T00:52:18.668Z,9.73
2023-03-20T00:54:46.844Z,9.73
2023-03-20T00:57:20.691Z,9.74
2023-03-20T01:00:05.275Z,9.79
2023-03-20T01:02:33.143Z,9.73
2023-03-20T01:05:00.561Z,9.74
2023-03-20T01:07:27.777Z,9.77
2023-03-20T01:09:54.253Z,9.76
2023-03-20T01:12:21.329Z,9.76
2023-03-20T01:14:52.245Z,9.74
2023-03-20T01:17:21.039Z,9.72
2023-03-20T01:19:47.959Z,9.71
2023-03-20T01:22:14.840Z,9.69
2023-03-20T01:24:42.085Z,9.69
2023-03-20T01:27:14.717Z,9.67
2023-03-20T01:29:42.132Z,9.62
2023-03-20T01:32:13.869Z,9.62
2023-03-20T01:34:40.722Z,9.57
2023-03-20T01:37:13.422Z,9.58
2023-03-20T01:39:40.233Z,9.56
2023-03-20T01:42:07.302Z,9.55
2023-03-20T01:44:36.011Z,9.54
2023-03-20T01:47:06.378Z,9.54
2023-03-20T01:50:10.778Z,9.61
2023-03-20T01:52:37.350Z,9.57
2023-03-20T01:55:04.225Z,9.51
2023-03-20T01:57:30.952Z,9.52
2023-03-20T02:00:11.903Z,9.50
2023-03-20T02:02:39.737Z,9.54
2023-03-20T02:05:10.564Z,9.50
2023-03-20T02:07:38.301Z,9.47
2023-03-20T02:10:13.705Z,9.48
2023-03-20T02:12:41.360Z,9.50
2023-03-20T02:15:09.928Z,9.54
2023-03-20T02:17:36.497Z,9.60
2023-03-20T02:20:06.054Z,9.58
2023-03-20T02:22:54.802Z,9.53
2023-03-20T02:25:44.229Z,9.54
2023-03-20T02:28:37.801Z,9.61
2023-03-20T02:31:28.679Z,9.66
2023-03-20T02:34:27.440Z,9.67
2023-03-20T02:37:24.654Z,9.70
2023-03-20T02:39:54.116Z,9.64
2023-03-20T02:42:33.274Z,9.55
2023-03-20T02:45:22.194Z,9.56
2023-03-20T02:47:54.721Z,9.52
2023-03-20T02:50:32.168Z,9.58
2023-03-20T02:53:18.798Z,9.60
2023-03-20T02:55:55.789Z,9.53
2023-03-20T02:58:30.972Z,9.60
2023-03-20T03:00:58.107Z,9.58
2023-03-20T03:03:32.184Z,9.55
2023-03-20T03:06:02.022Z,9.52
2023-03-20T03:08:32.407Z,9.51
2023-03-20T03:11:03.423Z,9.49
2023-03-20T03:13:32.644Z,9.65
2023-03-20T03:16:07.298Z,9.56
2023-03-20T03:18:35.968Z,9.57
2023-03-20T03:21:04.164Z,9.68
2023-03-20T03:23:39.196Z,9.64
2023-03-20T03:26:08.088Z,9.59
2023-03-20T03:28:43.695Z,9.57
2023-03-20T03:31:13.718Z,9.53
2023-03-20T03:33:41.508Z,9.67
2023-03-20T03:36:46.524Z,9.65
2023-03-20T03:39:52.409Z,9.59
2023-03-20T03:42:33.700Z,9.53
2023-03-20T03:45:07.588Z,9.50
2023-03-20T03:47:55.860Z,9.46
2023-03-20T03:50:31.584Z,9.43
2023-03-20T03:53:01.460Z,9.43
2023-03-20T03:55:32.401Z,9.49
2023-03-20T03:58:02.103Z,9.60
2023-03-20T04:00:28.765Z,9.55
2023-03-20T04:02:57.668Z,9.54
2023-03-20T04:05:25.603Z,9.66
2023-03-20T04:07:56.885Z,9.57
2023-03-20T04:10:23.436Z,9.58
2023-03-20T04:12:49.958Z,9.65
2023-03-20T04:15:16.984Z,9.63
2023-03-20T04:17:44.417Z,9.68
2023-03-20T04:20:12.508Z,9.66
2023-03-20T04:22:39.623Z,9.59
2023-03-20T04:25:07.910Z,9.58
2023-03-20T04:27:34.480Z,9.52
2023-03-20T04:30:00.917Z,9.61
2023-03-20T04:32:27.407Z,9.54
2023-03-20T04:34:53.864Z,9.56
2023-03-20T04:37:20.416Z,9.64
2023-03-20T04:39:47.669Z,9.53
2023-03-20T04:42:14.202Z,9.52
2023-03-20T04:44:40.758Z,9.46
2023-03-20T04:47:07.208Z,9.50
2023-03-20T04:49:33.801Z,9.42
2023-03-20T04:52:00.369Z,9.41
2023-03-20T04:54:26.885Z,9.43
2023-03-20T04:56:53.367Z,9.47
2023-03-20T04:59:19.839Z,9.46
2023-03-20T05:01:46.342Z,9.50
2023-03-20T05:04:13.305Z,9.53
2023-03-20T05:06:40.156Z,9.63
2023-03-20T05:09:06.732Z,9.66
2023-03-20T05:11:33.339Z,9.71
2023-03-20T05:13:59.892Z,9.73
2023-03-20T05:16:26.647Z,9.73
2023-03-20T05:18:53.229Z,9.77
2023-03-20T05:21:19.861Z,9.83
2023-03-20T05:23:46.576Z,9.89
2023-03-20T05:26:13.038Z,9.97
2023-03-20T05:28:39.567Z,10.05
2023-03-20T05:31:06.473Z,10.07
2023-03-20T05:33:33.161Z,10.09
2023-03-20T05:35:59.836Z,10.12
2023-03-20T05:38:27.192Z,10.15
2023-03-20T05:40:58.818Z,10.19
2023-03-20T05:43:25.896Z,10.21
2023-03-20T05:45:53.110Z,10.27
2023-03-20T05:48:19.838Z,10.29
2023-03-20T05:50:46.350Z,10.31
2023-03-20T05:53:12.924Z,10.43
2023-03-20T05:55:39.608Z,10.47
2023-03-20T05:58:06.264Z,10.47
2023-03-20T06:00:33.009Z,10.53
2023-03-20T06:02:59.523Z,10.56
2023-03-20T06:05:26.051Z,10.59
2023-03-20T06:07:52.580Z,10.58
2023-03-20T06:10:20.744Z,10.61
2023-03-20T06:12:48.460Z,10.61
2023-03-20T06:15:15.013Z,10.68
2023-03-20T06:17:42.224Z,10.78
2023-03-20T06:20:09.997Z,10.83
2023-03-20T06:22:36.826Z,11.00
2023-03-20T06:25:03.432Z,11.16
2023-03-20T06:27:31.107Z,11.33
2023-03-20T06:29:57.963Z,11.43
2023-03-20T06:32:24.543Z,11.51
2023-03-20T06:34:51.074Z,11.91
2023-03-20T06:37:19.416Z,12.18
2023-03-20T06:39:46.027Z,12.32
2023-03-20T06:42:15.066Z,12.76
2023-03-20T06:44:42.674Z,13.61
2023-03-20T06:47:09.555Z,14.03
2023-03-20T06:49:36.173Z,14.44
2023-03-20T06:52:02.997Z,14.69
2023-03-20T06:54:29.718Z,14.24
2023-03-20T06:56:56.287Z,15.12
2023-03-20T06:59:23.763Z,15.51
2023-03-20T07:01:50.694Z,16.61
2023-03-20T07:04:17.355Z,17.57
2023-03-20T07:06:43.905Z,18.16
2023-03-20T07:09:10.498Z,18.35
2023-03-20T07:11:37.014Z,19.83
2023-03-20T07:14:03.646Z,21.04
2023-03-20T07:16:30.160Z,20.90
2023-03-20T07:18:56.603Z,19.96
2023-03-20T07:21:23.222Z,21.67
2023-03-20T07:23:49.819Z,20.47
2023-03-20T07:26:16.961Z,20.23
2023-03-20T07:28:43.514Z,19.94
2023-03-20T07:31:19.206Z,19.58
2023-03-20T07:33:45.868Z,19.00
2023-03-20T07:36:12.595Z,18.30
2023-03-20T07:38:39.081Z,18.08
2023-03-20T07:41:06.020Z,17.44
2023-03-20T07:43:32.648Z,16.92
2023-03-20T07:46:02.471Z,17.90
2023-03-20T07:48:29.207Z,18.56
2023-03-20T07:50:55.789Z,18.88
2023-03-20T07:53:22.483Z,18.99
2023-03-20T07:55:49.052Z,18.51
2023-03-20T07:58:16.861Z,17.28
2023-03-20T08:00:44.013Z,16.24
2023-03-20T08:03:11.062Z,15.39
2023-03-20T08:05:38.134Z,15.11
2023-03-20T08:08:05.715Z,14.69
2023-03-20T08:10:32.711Z,14.54
2023-03-20T08:12:59.202Z,14.71
2023-03-20T08:15:25.896Z,14.82
2023-03-20T08:17:52.576Z,14.68
2023-03-20T08:20:19.937Z,14.35
2023-03-20T08:22:47.142Z,14.38
2023-03-20T08:25:13.953Z,14.23
2023-03-20T08:27:40.559Z,14.29
2023-03-20T08:30:09.002Z,14.29
2023-03-20T08:32:36.510Z,13.94
2023-03-20T08:35:03.457Z,14.14
2023-03-20T08:37:29.877Z,14.54
2023-03-20T08:39:56.960Z,15.62
2023-03-20T08:42:23.798Z,17.09
2023-03-20T08:44:50.563Z,17.86
2023-03-20T08:47:17.206Z,17.72
2023-03-20T08:49:44.105Z,17.52
2023-03-20T08:52:10.803Z,17.78
2023-03-20T08:54:37.349Z,17.56
2023-03-20T08:57:04.369Z,18.85
2023-03-20T08:59:31.385Z,20.02
2023-03-20T09:01:58.573Z,20.63
2023-03-20T09:04:25.719Z,19.84
2023-03-20T09:06:52.960Z,19.06
2023-03-20T09:09:21.534Z,18.51
2023-03-20T09:11:48.110Z,18.01
2023-03-20T09:14:15.163Z,17.21
2023-03-20T09:16:41.668Z,16.88
2023-03-20T09:19:08.379Z,15.84
2023-03-20T09:21:35.048Z,15.90
2023-03-20T09:24:01.681Z,15.48
2023-03-20T09:26:28.265Z,15.82
2023-03-20T09:28:54.845Z,15.80
2023-03-20T09:31:23.089Z,15.89
2023-03-20T09:33:50.392Z,15.84
2023-03-20T09:36:17.048Z,15.59
2023-03-20T09:38:43.642Z,15.47
2023-03-20T09:41:28.313Z,15.11
2023-03-20T09:44:08.448Z,14.94
2023-03-20T09:46:56.846Z,14.40
2023-03-20T09:49:39.682Z,14.63
2023-03-20T09:52:28.787Z,14.67
2023-03-20T09:54:58.244Z,14.54
2023-03-20T09:57:41.949Z,14.67
2023-03-20T10:00:16.412Z,14.50
2023-03-20T10:02:52.627Z,14.84
2023-03-20T10:05:31.341Z,14.71
2023-03-20T10:08:07.088Z,14.75
2023-03-20T10:10:46.724Z,14.49
2023-03-20T10:13:37.538Z,14.86
2023-03-20T10:16:32.779Z,15.20
2023-03-20T10:19:05.581Z,15.64
2023-03-20T10:21:39.530Z,16.22
2023-03-20T10:24:19.487Z,16.83
2023-03-20T10:26:51.018Z,16.88
2023-03-20T10:29:55.302Z,16.50
2023-03-20T10:32:33.278Z,17.08
2023-03-20T10:35:21.383Z,16.13
2023-03-20T10:38:09.890Z,15.34
2023-03-20T10:40:39.478Z,15.49
2023-03-20T10:43:19.112Z,15.21
2023-03-20T10:46:04.819Z,15.72
2023-03-20T10:48:36.981Z,15.92
2023-03-20T10:51:04.664Z,15.81
2023-03-20T10:53:31.876Z,16.04
2023-03-20T10:56:11.793Z,15.83
2023-03-20T10:58:41.062Z,15.64
2023-03-20T11:01:08.112Z,15.81
2023-03-20T11:03:38.967Z,15.95
2023-03-20T11:06:12.091Z,16.02
2023-03-20T11:08:43.388Z,15.98
2023-03-20T11:11:10.294Z,15.74
2023-03-20T11:13:41.704Z,15.16
2023-03-20T11:16:33.093Z,14.92
2023-03-20T11:19:07.078Z,14.68
2023-03-20T11:21:36.180Z,14.59
2023-03-20T11:24:04.066Z,14.46
2023-03-20T11:26:39.293Z,14.35
2023-03-20T11:29:08.193Z,14.65
2023-03-20T11:31:41.038Z,14.77
2023-03-20T11:34:07.628Z,14.91
2023-03-20T11:36:36.721Z,15.67
2023-03-20T11:39:06.394Z,16.15
2023-03-20T11:41:33.206Z,16.89
2023-03-20T11:43:59.735Z,17.05
2023-03-20T11:46:26.981Z,17.27
2023-03-20T11:49:06.579Z,17.15
2023-03-20T11:51:35.291Z,17.38
2023-03-20T11:54:06.029Z,17.47
2023-03-20T11:56:34.261Z,16.97
2023-03-20T11:59:14.775Z,17.08
2023-03-20T12:01:48.928Z,16.89
2023-03-20T12:04:42.055Z,15.98
2023-03-20T12:07:13.285Z,16.31
2023-03-20T12:09:47.854Z,15.86
2023-03-20T12:12:23.314Z,15.86
2023-03-20T12:15:12.957Z,15.77
2023-03-20T12:17:58.300Z,15.85
2023-03-20T12:20:46.136Z,15.69
2023-03-20T12:23:15.270Z,15.72
2023-03-20T12:26:04.133Z,15.79
2023-03-20T12:28:38.581Z,15.72
2023-03-20T12:31:25.425Z,15.75
2023-03-20T12:33:57.257Z,15.41
2023-03-20T12:36:36.013Z,15.18
2023-03-20T12:39:06.527Z,15.01
2023-03-20T12:41:40.265Z,14.37
2023-03-20T12:44:22.118Z,14.67
2023-03-20T12:47:18.515Z,14.76
2023-03-20T12:50:00.648Z,14.65
2023-03-20T12:52:46.532Z,14.74
2023-03-20T12:55:38.965Z,14.82
2023-03-20T12:58:43.592Z,14.82
2023-03-20T13:01:19.458Z,14.93
2023-03-20T13:04:10.943Z,14.91
2023-03-20T13:06:43.531Z,15.05
2023-03-20T13:09:28.139Z,15.12
2023-03-20T13:12:10.770Z,15.25
2023-03-20T13:14:37.244Z,15.30
2023-03-20T13:17:42.268Z,15.30
2023-03-20T13:20:37.107Z,15.19
2023-03-20T13:23:25.572Z,15.34
2023-03-20T13:26:04.157Z,14.98
2023-03-20T13:28:42.045Z,15.27
2023-03-20T13:31:30.901Z,15.67
2023-03-20T13:34:12.821Z,15.77
2023-03-20T13:36:45.255Z,16.01
2023-03-20T13:39:18.426Z,16.08
2023-03-20T13:41:46.945Z,15.60
2023-03-20T13:44:15.216Z,15.25
2023-03-20T13:46:46.688Z,14.99
2023-03-20T13:49:31.192Z,14.83
2023-03-20T13:52:29.345Z,14.88
2023-03-20T13:55:11.509Z,14.89
2023-03-20T13:58:17.276Z,14.89
2023-03-20T14:01:29.593Z,15.03
2023-03-20T14:03:56.625Z,15.04
2023-03-20T14:06:23.347Z,14.83
2023-03-20T14:08:54.004Z,14.52
2023-03-20T14:11:20.851Z,14.49
2023-03-20T14:13:59.404Z,14.42
2023-03-20T14:16:27.959Z,14.36
2023-03-20T14:19:19.161Z,14.27
2023-03-20T14:21:52.210Z,14.21
2023-03-20T14:24:20.383Z,14.22
2023-03-20T14:26:55.766Z,14.16
2023-03-20T14:29:33.736Z,14.10
2023-03-20T14:32:12.374Z,13.83
2023-03-20T14:34:49.982Z,13.37
2023-03-20T14:37:35.486Z,13.14
2023-03-20T14:40:11.404Z,12.84
2023-03-20T14:43:10.610Z,12.63
2023-03-20T14:45:45.355Z,12.43
2023-03-20T14:48:41.656Z,12.21
2023-03-20T14:51:37.206Z,12.17
2023-03-20T14:54:22.308Z,12.07
2023-03-20T14:56:50.526Z,12.04
2023-03-20T14:59:18.597Z,12.06
2023-03-20T15:01:48.254Z,11.93
2023-03-20T15:04:23.755Z,11.82
2023-03-20T15:07:08.584Z,11.67
2023-03-20T15:09:37.637Z,11.59
2023-03-20T15:12:04.601Z,11.54
2023-03-20T15:14:42.618Z,11.59
2023-03-20T15:17:36.971Z,11.53
2023-03-20T15:20:10.969Z,11.47
2023-03-20T15:22:48.035Z,11.45
2023-03-20T15:25:23.578Z,11.43
2023-03-20T15:27:51.875Z,11.30
2023-03-20T15:30:20.866Z,11.32
2023-03-20T15:32:49.735Z,11.32
2023-03-20T15:35:21.309Z,11.35
2023-03-20T15:37:49.447Z,11.35
2023-03-20T15:40:32.320Z,11.33
2023-03-20T15:43:23.025Z,11.24
2023-03-20T15:45:50.804Z,11.15
2023-03-20T15:48:19.581Z,11.17
2023-03-20T15:50:49.571Z,11.20
2023-03-20T15:53:21.322Z,11.06
2023-03-20T15:55:56.172Z,11.08
2023-03-20T15:58:25.797Z,11.19
2023-03-20T16:00:52.346Z,11.11
2023-03-20T16:03:21.198Z,11.03
2023-03-20T16:05:49.789Z,10.99
2023-03-20T16:08:27.080Z,10.97
2023-03-20T16:11:17.192Z,10.86
2023-03-20T16:13:48.159Z,10.83
2023-03-20T16:16:17.279Z,10.84
2023-03-20T16:18:46.490Z,10.86
2023-03-20T16:21:19.071Z,10.87
2023-03-20T16:23:48.080Z,10.90
2023-03-20T16:26:17.562Z,10.92
2023-03-20T16:28:55.462Z,10.83
2023-03-20T16:31:26.275Z,10.80
2023-03-20T16:33:52.994Z,10.76
2023-03-20T16:36:29.584Z,10.79
2023-03-20T16:39:06.219Z,10.76
2023-03-20T16:41:34.880Z,10.70
2023-03-20T16:44:28.824Z,10.66
2023-03-20T16:47:01.415Z,10.62
2023-03-20T16:49:34.501Z,10.77
2023-03-20T16:52:04.346Z,10.71
2023-03-20T16:54:34.499Z,10.64
2023-03-20T16:57:04.021Z,10.56
2023-03-20T16:59:30.651Z,10.53
2023-03-20T17:02:01.634Z,10.59
2023-03-20T17:04:39.285Z,10.49
2023-03-20T17:07:10.271Z,10.47
2023-03-20T17:09:36.747Z,10.43
2023-03-20T17:12:18.232Z,10.45
2023-03-20T17:14:47.903Z,10.49
2023-03-20T17:17:19.322Z,10.53
2023-03-20T17:19:46.991Z,10.51
2023-03-20T17:22:15.645Z,10.45
2023-03-20T17:24:42.236Z,10.45
2023-03-20T17:27:11.694Z,10.54
2023-03-20T17:29:39.570Z,10.50
2023-03-20T17:32:14.496Z,10.60
2023-03-20T17:34:41.507Z,10.55
2023-03-20T17:37:12.647Z,10.55
2023-03-20T17:39:39.111Z,10.56
2023-03-20T17:42:19.912Z,10.64
2023-03-20T17:44:48.098Z,10.60
2023-03-20T17:47:20.147Z,10.71
2023-03-20T17:49:46.999Z,10.79
2023-03-20T17:52:18.206Z,10.59
2023-03-20T17:54:45.381Z,10.67
2023-03-20T17:57:26.539Z,10.64
2023-03-20T17:59:53.031Z,10.66
2023-03-20T18:02:19.671Z,10.66
2023-03-20T18:04:46.883Z,10.60
2023-03-20T18:07:14.063Z,10.52
2023-03-20T18:09:42.768Z,10.51
2023-03-20T18:12:15.658Z,10.50
2023-03-20T18:14:43.374Z,10.46
2023-03-20T18:17:14.280Z,10.57
2023-03-20T18:19:41.343Z,10.50
2023-03-20T18:22:08.530Z,10.54
2023-03-20T18:24:36.012Z,10.46
2023-03-20T18:27:03.042Z,10.39
2023-03-20T18:29:29.820Z,10.39
2023-03-20T18:31:56.462Z,10.47
2023-03-20T18:34:23.375Z,10.47
2023-03-20T18:36:50.034Z,10.45
2023-03-20T18:39:24.420Z,10.38
2023-03-20T18:41:51.403Z,10.37
2023-03-20T18:44:18.186Z,10.33
2023-03-20T18:46:44.968Z,10.42
2023-03-20T18:49:16.609Z,10.43
2023-03-20T18:51:44.249Z,10.36
2023-03-20T18:54:11.574Z,10.35
2023-03-20T18:56:38.322Z,10.34
2023-03-20T18:59:07.832Z,10.31
2023-03-20T19:01:35.369Z,10.22
2023-03-20T19:04:02.162Z,10.22
2023-03-20T19:06:30.149Z,10.15
2023-03-20T19:08:57.127Z,10.14
2023-03-20T19:11:23.828Z,10.07
2023-03-20T19:13:53.935Z,10.04
2023-03-20T19:16:28.435Z,9.93
2023-03-20T19:18:58.863Z,9.94
2023-03-20T19:21:28.381Z,9.93
2023-03-20T19:23:56.970Z,9.98
2023-03-20T19:26:25.741Z,9.99
2023-03-20T19:28:53.526Z,10.05
2023-03-20T19:31:20.343Z,10.04
2023-03-20T19:33:46.966Z,10.02
2023-03-20T19:36:24.451Z,9.92
2023-03-20T19:38:52.379Z,9.97
2023-03-20T19:41:20.190Z,9.94
2023-03-20T19:43:53.151Z,9.89
2023-03-20T19:46:38.708Z,9.94
2023-03-20T19:49:17.797Z,9.95
2023-03-20T19:51:45.257Z,9.95
2023-03-20T19:54:11.683Z,9.90
2023-03-20T19:56:38.247Z,9.86
2023-03-20T19:59:05.943Z,9.78
2023-03-20T20:01:32.491Z,9.62
2023-03-20T20:03:59.068Z,9.53
2023-03-20T20:06:31.035Z,9.45
2023-03-20T20:08:59.436Z,9.36
2023-03-20T20:11:26.323Z,9.19
2023-03-20T20:14:10.028Z,9.14
2023-03-20T20:16:39.675Z,9.05
2023-03-20T20:19:06.913Z,8.92
2023-03-20T20:24:20.229Z,8.75
2023-03-20T20:27:03.189Z,8.75
2023-03-20T20:29:37.459Z,8.72
2023-03-20T20:32:04.425Z,8.66
2023-03-20T20:38:09.126Z,8.59
2023-03-20T20:40:06.064Z,8.47
2023-03-20T20:42:32.740Z,8.54
2023-03-20T20:44:59.349Z,8.67
2023-03-20T20:47:25.900Z,8.75
2023-03-20T20:49:52.426Z,8.81
2023-03-20T20:52:19.126Z,8.88
2023-03-20T20:54:45.654Z,8.92
2023-03-20T20:57:12.398Z,8.95
2023-03-20T20:59:40.379Z,8.97
2023-03-20T21:02:12.295Z,9.00
2023-03-20T21:04:40.278Z,9.05
2023-03-20T21:07:10.250Z,9.00
2023-03-20T21:09:37.668Z,9.07
2023-03-20T21:12:04.814Z,9.03
2023-03-20T21:14:31.428Z,9.03
2023-03-20T21:17:01.822Z,9.03
2023-03-20T21:19:49.709Z,9.01
2023-03-20T21:22:17.043Z,9.01
2023-03-20T21:24:43.868Z,9.04
2023-03-20T21:27:13.794Z,9.05
2023-03-20T21:29:41.493Z,9.03
2023-03-20T21:32:10.898Z,9.02
2023-03-20T21:34:38.461Z,9.03
2023-03-20T21:38:04.640Z,9.05
2023-03-20T21:39:52.657Z,9.05
2023-03-20T21:42:19.307Z,9.06
2023-03-20T21:45:34.484Z,9.08
2023-03-20T21:48:24.564Z,9.17
2023-03-20T21:53:49.580Z,9.20
2023-03-20T21:56:41.720Z,9.22
2023-03-20T21:59:27.065Z,9.22
2023-03-20T22:01:58.740Z,9.17
2023-03-20T22:13:21.707Z,9.21
2023-03-20T22:16:01.980Z,9.15
2023-03-20T22:24:45.200Z,9.22
2023-03-20T22:30:02.619Z,9.29
2023-03-20T22:32:52.086Z,9.21
2023-03-20T22:35:41.776Z,9.20
2023-03-20T22:41:18.303Z,9.30
2023-03-20T22:46:36.082Z,9.27
2023-03-20T22:48:48.748Z,9.30
2023-03-20T22:51:16.500Z,9.26
2023-03-20T22:53:44.836Z,9.33
2023-03-20T22:56:12.868Z,9.38
2023-03-20T22:58:39.493Z,9.35
2023-03-20T23:01:08.276Z,9.35
2023-03-20T23:03:41.526Z,9.38
2023-03-20T23:06:20.174Z,9.38
2023-03-20T23:08:53.942Z,9.34
2023-03-20T23:11:23.322Z,9.33
2023-03-20T23:13:50.134Z,9.31
2023-03-20T23:16:16.866Z,9.40
2023-03-20T23:18:44.417Z,9.35
2023-03-20T23:21:13.160Z,9.37
2023-03-20T23:23:39.689Z,9.37
2023-03-20T23:26:10.587Z,9.33
2023-03-20T23:28:37.911Z,9.38
2023-03-20T23:31:10.386Z,9.39
2023-03-20T23:33:38.814Z,9.39
2023-03-20T23:36:18.599Z,9.42
2023-03-20T23:38:48.313Z,9.43
2023-03-20T23:41:15.765Z,9.38
2023-03-20T23:43:42.858Z,9.38
2023-03-20T23:46:09.390Z,9.37
2023-03-20T23:48:36.439Z,9.37
2023-03-20T23:51:03.594Z,9.34
2023-03-20T23:53:30.260Z,9.37
2023-03-20T23:55:57.274Z,9.34
2023-03-20T23:58:25.584Z,9.27
